Time;durP1;ratioP1;P1;durP2;ratioP2;P2;SDS_P1;SDS_P2;PMS_P1;PMS_P2;Temp;Humidity;BMP_temperature;BMP_pressure;BME280_temperature;BME280_humidity;BME280_pressure;Samples;Min_cycle;Max_cycle;Signal;HPM_P1;HPM_P2
2022/06/01 00:02:16;;;;;;;8.80;6.95;;;12.40;99.90;;;;;;5096042;28;20165;-49
2022/06/01 00:04:42;;;;;;;7.28;5.72;;;12.40;99.90;;;;;;5095641;28;20252;-47
2022/06/01 00:07:07;;;;;;;10.35;7.07;;;12.50;99.90;;;;;;5095873;28;20221;-47
2022/06/01 00:09:33;;;;;;;8.88;6.90;;;12.60;99.90;;;;;;5095718;28;20166;-48
2022/06/01 00:11:58;;;;;;;10.57;6.68;;;12.70;99.90;;;;;;5096052;28;20169;-49
2022/06/01 00:14:24;;;;;;;10.20;6.25;;;12.60;99.90;;;;;;5095550;28;20204;-48
2022/06/01 00:16:55;;;;;;;7.60;6.13;;;12.60;99.90;;;;;;5095502;28;20320;-49
2022/06/01 00:19:21;;;;;;;10.38;6.60;;;12.60;99.90;;;;;;5095807;28;20589;-48
2022/06/01 00:24:31;;;;;;;8.07;6.45;;;12.60;99.90;;;;;;5095405;28;20312;-48
2022/06/01 00:26:56;;;;;;;12.13;6.72;;;12.60;99.90;;;;;;5095600;28;20314;-48
2022/06/01 00:29:22;;;;;;;16.98;8.27;;;12.50;99.90;;;;;;5095182;28;20173;-48
2022/06/01 00:31:47;;;;;;;14.25;7.95;;;12.60;99.90;;;;;;5095218;28;20207;-48
2022/06/01 00:34:13;;;;;;;10.60;6.82;;;12.60;99.90;;;;;;5095220;28;20170;-48
2022/06/01 00:36:38;;;;;;;9.82;5.97;;;12.60;99.90;;;;;;5095192;28;20157;-49
2022/06/01 00:39:04;;;;;;;9.25;6.78;;;12.50;99.90;;;;;;5095116;28;20622;-48
2022/06/01 00:41:29;;;;;;;11.23;6.80;;;12.60;99.90;;;;;;5094979;28;20165;-47
2022/06/01 00:43:55;;;;;;;8.18;6.75;;;12.60;99.90;;;;;;5095283;28;20161;-47
2022/06/01 00:46:21;;;;;;;14.20;7.55;;;12.60;99.90;;;;;;5094980;28;20212;-49
2022/06/01 00:48:51;;;;;;;10.02;6.55;;;12.50;99.90;;;;;;5095064;28;20253;-48
2022/06/01 00:51:21;;;;;;;10.25;7.15;;;12.50;99.90;;;;;;5094716;28;20169;-48
2022/06/01 00:53:48;;;;;;;10.35;6.97;;;12.50;99.90;;;;;;5094861;28;20173;-47
2022/06/01 00:56:22;;;;;;;13.80;6.53;;;12.40;99.90;;;;;;5094815;28;20242;-47
2022/06/01 00:58:51;;;;;;;10.55;6.55;;;12.40;99.90;;;;;;5094756;28;20260;-47
2022/06/01 01:01:19;;;;;;;10.63;6.32;;;12.30;99.90;;;;;;5094959;28;20572;-46
2022/06/01 01:03:47;;;;;;;9.80;6.30;;;12.40;99.90;;;;;;5094632;28;20218;-47
2022/06/01 01:06:26;;;;;;;8.45;5.80;;;12.30;99.90;;;;;;5094503;28;20257;-48
2022/06/01 01:08:53;;;;;;;9.02;4.78;;;12.40;99.90;;;;;;5094225;28;20162;-47
2022/06/01 01:11:27;;;;;;;7.88;4.75;;;12.20;99.90;;;;;;5094498;28;20169;-47
2022/06/01 01:13:53;;;;;;;7.32;4.25;;;12.20;99.90;;;;;;5094508;28;20157;-47
2022/06/01 01:16:20;;;;;;;6.75;4.53;;;12.10;99.90;;;;;;5094614;28;20673;-48
2022/06/01 01:18:47;;;;;;;5.43;4.30;;;12.00;99.90;;;;;;5094345;28;20172;-46
2022/06/01 01:21:26;;;;;;;4.88;4.00;;;12.00;99.90;;;;;;5094287;28;20165;-46
2022/06/01 01:24:13;;;;;;;6.15;4.18;;;12.00;99.90;;;;;;5076727;28;20248;-47
2022/06/01 01:26:39;;;;;;;10.57;4.25;;;12.00;99.90;;;;;;5094084;28;20686;-47
2022/06/01 01:29:09;;;;;;;6.60;4.00;;;12.00;99.90;;;;;;5094250;28;20169;-47
2022/06/01 01:31:35;;;;;;;12.50;4.93;;;12.00;99.90;;;;;;5094046;28;20650;-47
2022/06/01 01:34:02;;;;;;;8.20;4.70;;;11.90;99.90;;;;;;5094047;28;20166;-47
2022/06/01 01:36:35;;;;;;;8.88;4.10;;;11.90;99.90;;;;;;5094375;28;20215;-48
2022/06/01 01:39:07;;;;;;;6.15;3.75;;;11.90;99.90;;;;;;5093876;28;20657;-48
2022/06/01 01:41:50;;;;;;;6.63;4.05;;;11.80;99.90;;;;;;5094176;28;20165;-48
2022/06/01 01:44:40;;;;;;;7.28;3.72;;;11.80;99.90;;;;;;5094138;28;20169;-48
2022/06/01 01:47:06;;;;;;;5.68;4.05;;;11.70;99.90;;;;;;5094010;28;20236;-48
2022/06/01 01:49:34;;;;;;;8.55;4.18;;;11.80;99.90;;;;;;5093814;28;20196;-48
2022/06/01 01:52:06;;;;;;;7.25;3.83;;;11.80;99.90;;;;;;5093652;28;20231;-45
2022/06/01 01:54:53;;;;;;;10.77;4.07;;;11.80;99.90;;;;;;5093838;28;20169;-47
2022/06/01 01:57:43;;;;;;;4.15;3.42;;;11.80;99.90;;;;;;5093542;28;20158;-46
2022/06/01 02:00:17;;;;;;;9.35;5.07;;;11.80;99.90;;;;;;5093560;28;20165;-47
2022/06/01 02:03:05;;;;;;;16.05;7.90;;;11.80;99.90;;;;;;5093523;28;20167;-46
2022/06/01 02:08:51;;;;;;;16.85;7.75;;;11.80;99.90;;;;;;5093710;28;20191;-48
2022/06/01 02:14:09;;;;;;;8.52;4.38;;;11.80;99.90;;;;;;5093370;28;20755;-47
2022/06/01 02:16:40;;;;;;;6.07;3.78;;;11.80;99.90;;;;;;5093247;28;20176;-46
2022/06/01 02:19:14;;;;;;;8.18;4.00;;;11.70;99.90;;;;;;5093312;28;20176;-47
2022/06/01 02:21:39;;;;;;;7.50;5.20;;;11.70;99.90;;;;;;5092417;28;20166;-47
2022/06/01 02:24:06;;;;;;;12.68;7.00;;;11.70;99.90;;;;;;5093058;28;20169;-48
2022/06/01 02:26:32;;;;;;;10.43;6.00;;;11.70;99.90;;;;;;5092939;28;20197;-47
2022/06/01 02:29:07;;;;;;;8.32;4.40;;;11.60;99.90;;;;;;5093268;28;20181;-46
2022/06/01 02:31:34;;;;;;;7.70;3.90;;;11.50;99.90;;;;;;5093146;28;20193;-48
2022/06/01 02:34:01;;;;;;;6.82;3.83;;;11.50;99.90;;;;;;5093166;28;20246;-45
2022/06/01 02:36:27;;;;;;;6.43;3.78;;;11.50;99.90;;;;;;5093420;28;20169;-47
2022/06/01 02:38:55;;;;;;;4.47;3.55;;;11.40;99.90;;;;;;5092802;28;20266;-46
2022/06/01 02:44:05;;;;;;;7.55;3.70;;;11.50;99.90;;;;;;5092761;28;20187;-46
2022/06/01 02:46:31;;;;;;;8.35;3.30;;;11.50;99.90;;;;;;5092787;28;20654;-47
2022/06/01 02:48:57;;;;;;;6.32;3.47;;;11.50;99.90;;;;;;5093204;28;20166;-46
2022/06/01 02:51:24;;;;;;;4.20;3.50;;;11.50;99.90;;;;;;5092548;28;20172;-47
2022/06/01 02:53:49;;;;;;;5.57;3.20;;;11.50;99.90;;;;;;5092471;28;20649;-46
2022/06/01 02:56:16;;;;;;;7.38;3.65;;;11.40;99.90;;;;;;5092608;28;20200;-46
2022/06/01 02:58:41;;;;;;;5.60;3.10;;;11.40;99.90;;;;;;5092497;28;20169;-47
2022/06/01 03:01:07;;;;;;;6.78;3.63;;;11.20;99.90;;;;;;5092469;28;20162;-46
2022/06/01 03:03:34;;;;;;;5.45;3.38;;;11.20;99.90;;;;;;5092360;28;20169;-47
2022/06/01 03:05:59;;;;;;;7.70;3.35;;;11.20;99.90;;;;;;5092331;28;20225;-46
2022/06/01 03:08:25;;;;;;;7.45;3.40;;;11.20;99.90;;;;;;5092753;28;20230;-47
2022/06/01 03:10:51;;;;;;;5.43;3.42;;;11.20;99.90;;;;;;5092285;28;20165;-46
2022/06/01 03:13:17;;;;;;;5.68;3.47;;;11.20;99.90;;;;;;5092389;28;20170;-47
2022/06/01 03:15:43;;;;;;;6.45;2.80;;;11.20;99.90;;;;;;5092180;28;20615;-48
2022/06/01 03:18:08;;;;;;;4.28;2.75;;;11.10;99.90;;;;;;5092428;28;20248;-48
2022/06/01 03:20:34;;;;;;;4.45;3.08;;;11.10;99.90;;;;;;5092211;28;20502;-46
2022/06/01 03:23:01;;;;;;;6.13;2.75;;;11.00;99.90;;;;;;5092347;28;20180;-46
2022/06/01 03:25:28;;;;;;;4.70;3.58;;;11.00;99.90;;;;;;5092489;28;20610;-46
2022/06/01 03:27:59;;;;;;;8.68;2.97;;;11.00;99.90;;;;;;5092050;28;20213;-46
2022/06/01 03:30:26;;;;;;;5.72;3.42;;;10.90;99.90;;;;;;5092438;28;20165;-47
2022/06/01 03:32:53;;;;;;;6.93;3.28;;;10.90;99.90;;;;;;5091852;28;20174;-46
2022/06/01 03:35:24;;;;;;;6.43;3.05;;;10.90;99.90;;;;;;5091946;28;20190;-47
2022/06/01 03:37:50;;;;;;;4.03;3.00;;;10.90;99.90;;;;;;5092013;28;20161;-48
2022/06/01 03:40:19;;;;;;;7.78;3.05;;;10.80;99.90;;;;;;5091900;28;20219;-47
2022/06/01 03:42:44;;;;;;;10.35;3.30;;;10.90;99.90;;;;;;5091933;28;20176;-48
2022/06/01 03:47:55;;;;;;;7.28;3.22;;;11.00;99.90;;;;;;5092148;28;20292;-48
2022/06/01 03:50:23;;;;;;;4.53;2.92;;;11.00;99.90;;;;;;5091827;28;20170;-47
2022/06/01 03:52:50;;;;;;;6.13;3.47;;;11.00;99.90;;;;;;5091781;28;21294;-47
2022/06/01 03:55:15;;;;;;;12.45;3.90;;;11.00;99.90;;;;;;5091820;28;20161;-47
2022/06/01 03:57:42;;;;;;;11.23;4.00;;;11.00;99.90;;;;;;5091766;28;20176;-48
2022/06/01 04:00:10;;;;;;;9.82;3.45;;;11.00;99.90;;;;;;5091793;28;20168;-48
2022/06/01 04:02:37;;;;;;;8.32;3.47;;;11.00;99.90;;;;;;5091742;28;20266;-47
2022/06/01 04:05:03;;;;;;;8.18;3.28;;;11.00;99.90;;;;;;5091978;28;20173;-47
2022/06/01 04:07:28;;;;;;;10.75;3.30;;;11.10;99.90;;;;;;5091974;28;20197;-48
2022/06/01 04:09:54;;;;;;;9.63;3.75;;;11.10;99.90;;;;;;5091794;28;20254;-48
2022/06/01 04:12:19;;;;;;;9.43;3.40;;;11.10;99.90;;;;;;5091596;28;20199;-47
2022/06/01 04:14:45;;;;;;;8.20;3.33;;;11.10;99.90;;;;;;5091587;28;20653;-48
2022/06/01 04:17:10;;;;;;;8.00;3.17;;;11.10;99.90;;;;;;5091630;28;20169;-48
2022/06/01 04:19:36;;;;;;;5.22;3.47;;;11.10;99.90;;;;;;5091610;28;20165;-48
2022/06/01 04:22:02;;;;;;;10.30;3.15;;;11.10;99.90;;;;;;5091489;28;20184;-48
2022/06/01 04:24:33;;;;;;;7.57;2.97;;;11.10;99.90;;;;;;5091797;28;20223;-48
2022/06/01 04:26:59;;;;;;;8.45;3.28;;;11.20;99.90;;;;;;5091509;28;20236;-46
2022/06/01 04:29:25;;;;;;;4.90;3.38;;;11.10;99.90;;;;;;5091897;28;20170;-48
2022/06/01 04:31:59;;;;;;;7.68;2.88;;;11.10;99.90;;;;;;5091378;28;20194;-48
2022/06/01 04:34:25;;;;;;;5.13;3.22;;;11.30;99.90;;;;;;5091646;28;20563;-48
2022/06/01 04:36:52;;;;;;;6.88;2.75;;;11.30;99.90;;;;;;5091512;28;20615;-47
2022/06/01 04:39:18;;;;;;;10.93;3.28;;;11.40;99.90;;;;;;5091359;28;20172;-48
2022/06/01 04:41:43;;;;;;;9.32;3.25;;;11.40;99.90;;;;;;5091377;28;20169;-48
2022/06/01 04:44:09;;;;;;;10.50;3.58;;;11.50;99.90;;;;;;5092466;28;20214;-48
2022/06/01 04:46:36;;;;;;;18.88;3.70;;;11.60;99.90;;;;;;5094896;28;20205;-48
2022/06/01 04:49:02;;;;;;;17.80;4.10;;;11.70;99.90;;;;;;5095154;28;20251;-48
2022/06/01 04:51:28;;;;;;;39.70;4.55;;;11.70;99.90;;;;;;5094969;28;20204;-48
2022/06/01 04:53:54;;;;;;;31.92;5.00;;;11.70;99.90;;;;;;5094925;28;20165;-47
2022/06/01 04:56:19;;;;;;;27.42;5.15;;;11.70;99.90;;;;;;5110117;28;20630;-47
2022/06/01 04:58:45;;;;;;;38.40;5.32;;;11.80;99.90;;;;;;5094389;28;20176;-48
2022/06/01 05:01:10;;;;;;;26.70;4.28;;;11.90;99.90;;;;;;5094721;28;20176;-49
2022/06/01 05:03:36;;;;;;;14.45;3.60;;;11.90;99.90;;;;;;5094688;28;20165;-48
2022/06/01 05:06:02;;;;;;;17.67;4.60;;;12.00;99.90;;;;;;5094471;28;20204;-48
2022/06/01 05:08:27;;;;;;;13.68;4.18;;;12.10;99.90;;;;;;5094946;28;20169;-49
2022/06/01 05:10:53;;;;;;;16.10;3.80;;;12.10;99.90;;;;;;5094328;28;20162;-49
2022/06/01 05:13:19;;;;;;;13.25;4.50;;;12.10;99.90;;;;;;5094472;28;20172;-48
2022/06/01 05:15:56;;;;;;;9.50;3.67;;;12.10;99.90;;;;;;5094377;28;20626;-48
2022/06/01 05:18:23;;;;;;;17.75;3.90;;;12.20;99.90;;;;;;5076651;28;20189;-48
2022/06/01 05:20:48;;;;;;;12.32;3.75;;;12.30;99.90;;;;;;5094296;28;20173;-48
2022/06/01 05:23:16;;;;;;;13.38;3.90;;;12.30;99.90;;;;;;5094315;28;20594;-47
2022/06/01 05:25:43;;;;;;;11.43;4.03;;;12.30;99.90;;;;;;5094240;28;20618;-48
2022/06/01 05:28:09;;;;;;;7.70;4.00;;;12.50;99.90;;;;;;5094168;28;20173;-47
2022/06/01 05:30:35;;;;;;;9.10;3.80;;;12.40;99.90;;;;;;5094382;28;20220;-46
2022/06/01 05:33:01;;;;;;;7.97;3.72;;;12.50;99.90;;;;;;5094087;28;20174;-48
2022/06/01 05:35:27;;;;;;;9.50;3.92;;;12.50;99.90;;;;;;5094455;28;20169;-47
2022/06/01 05:37:52;;;;;;;6.57;3.42;;;12.70;99.90;;;;;;5109867;28;20197;-47
2022/06/01 05:40:18;;;;;;;9.43;4.18;;;12.70;99.90;;;;;;5093973;28;20650;-48
2022/06/01 05:42:43;;;;;;;8.15;3.13;;;12.90;99.90;;;;;;5094099;28;20664;-48
2022/06/01 05:45:10;;;;;;;6.45;3.65;;;12.80;99.90;;;;;;5094005;28;20640;-45
2022/06/01 05:47:36;;;;;;;6.88;2.97;;;12.90;99.90;;;;;;5093818;28;20205;-47
2022/06/01 05:50:03;;;;;;;4.50;3.15;;;13.00;99.90;;;;;;5093847;28;20158;-48
2022/06/01 05:52:29;;;;;;;3.53;3.20;;;13.10;99.90;;;;;;5093972;28;20656;-47
2022/06/01 05:54:54;;;;;;;6.90;3.10;;;13.00;99.90;;;;;;5093632;28;20169;-46
2022/06/01 05:57:20;;;;;;;6.05;3.22;;;13.00;99.90;;;;;;5092929;28;20189;-47
2022/06/01 05:59:45;;;;;;;7.57;3.15;;;13.00;99.90;;;;;;5093787;28;20540;-47
2022/06/01 06:02:11;;;;;;;6.72;3.45;;;13.30;99.90;;;;;;5093448;28;20180;-46
2022/06/01 06:04:37;;;;;;;3.42;3.10;;;13.30;99.90;;;;;;5093825;28;20219;-47
2022/06/01 06:07:02;;;;;;;8.20;3.70;;;13.30;99.90;;;;;;5093300;28;20682;-47
2022/06/01 06:09:28;;;;;;;11.52;3.38;;;13.40;99.90;;;;;;5093493;28;20676;-46
2022/06/01 06:11:54;;;;;;;5.82;3.00;;;13.40;99.90;;;;;;5093394;28;20188;-46
2022/06/01 06:14:20;;;;;;;4.50;2.78;;;13.60;99.90;;;;;;5075065;28;20162;-46
2022/06/01 06:16:46;;;;;;;6.88;3.20;;;13.70;99.90;;;;;;5093326;28;20195;-46
2022/06/01 06:19:14;;;;;;;5.10;2.78;;;13.80;99.90;;;;;;5093373;28;20165;-48
2022/06/01 06:21:40;;;;;;;6.25;3.03;;;13.80;99.90;;;;;;5093414;28;20173;-46
2022/06/01 06:24:08;;;;;;;5.20;2.20;;;13.80;99.90;;;;;;5093176;28;20665;-46
2022/06/01 06:26:35;;;;;;;4.22;2.67;;;13.80;99.90;;;;;;5092906;28;20292;-46
2022/06/01 06:29:03;;;;;;;6.15;3.10;;;13.90;99.90;;;;;;5093000;28;20176;-46
2022/06/01 06:31:29;;;;;;;4.50;2.75;;;13.80;99.90;;;;;;5093057;28;20622;-45
2022/06/01 06:33:56;;;;;;;6.05;2.95;;;14.00;99.90;;;;;;5093302;28;20192;-46
2022/06/01 06:36:21;;;;;;;4.53;2.80;;;14.20;99.90;;;;;;5092907;28;20620;-47
2022/06/01 06:38:47;;;;;;;4.97;2.63;;;14.50;99.90;;;;;;5092983;28;20193;-48
2022/06/01 06:41:13;;;;;;;6.03;2.50;;;14.70;99.90;;;;;;5092832;28;20260;-47
2022/06/01 06:43:39;;;;;;;7.38;3.38;;;14.90;99.90;;;;;;5092768;28;20248;-46
2022/06/01 06:46:11;;;;;;;6.47;3.40;;;14.80;99.90;;;;;;5092572;28;20730;-46
2022/06/01 06:48:37;;;;;;;4.40;2.80;;;14.70;99.90;;;;;;5092652;28;20165;-49
2022/06/01 06:51:03;;;;;;;6.82;3.17;;;14.80;99.90;;;;;;5092680;28;20165;-46
2022/06/01 06:53:29;;;;;;;7.15;2.75;;;14.70;99.90;;;;;;5092231;28;20205;-46
2022/06/01 06:55:55;;;;;;;5.07;2.60;;;14.60;99.90;;;;;;5092669;28;20166;-48
2022/06/01 06:58:21;;;;;;;5.47;3.20;;;14.70;99.90;;;;;;5092417;28;20298;-49
2022/06/01 07:00:47;;;;;;;4.97;3.10;;;14.70;99.90;;;;;;5092590;28;20238;-48
2022/06/01 07:03:13;;;;;;;4.35;2.58;;;14.70;99.90;;;;;;5074186;28;20169;-47
2022/06/01 07:08:25;;;;;;;6.70;2.75;;;14.90;99.90;;;;;;5091622;28;20446;-47
2022/06/01 07:10:54;;;;;;;5.03;2.65;;;14.70;99.90;;;;;;5091509;28;20275;-48
2022/06/01 07:13:21;;;;;;;12.05;3.13;;;14.70;99.90;;;;;;5090874;28;20168;-47
2022/06/01 07:15:47;;;;;;;6.13;2.97;;;14.90;99.90;;;;;;5091735;28;20196;-47
2022/06/01 07:18:13;;;;;;;7.18;3.20;;;15.00;99.90;;;;;;5091395;28;20266;-46
2022/06/01 07:20:39;;;;;;;4.65;3.00;;;15.10;99.90;;;;;;5091532;28;20646;-48
2022/06/01 07:23:05;;;;;;;5.90;3.58;;;15.20;99.90;;;;;;5092203;28;20173;-48
2022/06/01 07:25:31;;;;;;;6.28;2.83;;;15.20;99.90;;;;;;5092348;28;20218;-46
2022/06/01 07:27:57;;;;;;;9.27;2.88;;;15.30;99.90;;;;;;5092664;28;20205;-48
2022/06/01 07:30:23;;;;;;;3.80;2.42;;;15.20;99.90;;;;;;5092126;28;20656;-47
2022/06/01 07:32:49;;;;;;;3.60;2.28;;;15.20;99.90;;;;;;5091901;28;20196;-47
2022/06/01 07:35:16;;;;;;;4.90;2.45;;;15.30;99.90;;;;;;5091987;28;20161;-47
2022/06/01 07:43:14;;;;;;;5.53;2.40;;;15.10;99.90;;;;;;5092253;28;20168;-48
2022/06/01 07:45:44;;;;;;;4.38;2.10;;;15.20;99.90;;;;;;5091888;28;20209;-46
2022/06/01 07:48:10;;;;;;;4.78;2.63;;;15.50;99.90;;;;;;5091787;28;20540;-49
2022/06/01 07:50:37;;;;;;;5.43;2.53;;;15.50;99.90;;;;;;5092185;28;20161;-48
2022/06/01 07:53:05;;;;;;;4.28;2.50;;;15.60;99.90;;;;;;5091798;28;20785;-46
2022/06/01 07:55:31;;;;;;;5.90;2.38;;;15.50;99.90;;;;;;5092112;28;20229;-48
2022/06/01 07:57:57;;;;;;;4.18;2.00;;;15.50;99.90;;;;;;5092468;28;20248;-48
2022/06/01 08:00:23;;;;;;;6.57;2.60;;;15.70;99.90;;;;;;5092187;28;20196;-48
2022/06/01 08:02:48;;;;;;;6.05;2.38;;;15.80;99.90;;;;;;5092418;28;20518;-47
2022/06/01 08:05:16;;;;;;;5.05;2.20;;;16.00;99.90;;;;;;5091948;28;20258;-48
2022/06/01 08:07:43;;;;;;;5.03;2.35;;;15.70;99.90;;;;;;5091670;28;20338;-46
2022/06/01 08:10:10;;;;;;;5.25;2.50;;;15.70;99.90;;;;;;5091668;28;20238;-47
2022/06/01 08:15:21;;;;;;;3.08;2.08;;;15.80;99.90;;;;;;5091742;28;20160;-46
2022/06/01 08:17:47;;;;;;;3.45;1.77;;;16.10;99.90;;;;;;5091608;28;20162;-47
2022/06/01 08:20:15;;;;;;;6.25;2.10;;;16.20;99.90;;;;;;5094708;28;20281;-47
2022/06/01 08:22:41;;;;;;;4.60;2.05;;;16.40;99.90;;;;;;5095852;28;20169;-47
2022/06/01 08:25:09;;;;;;;4.13;2.03;;;16.40;99.90;;;;;;5077519;28;20647;-49
2022/06/01 08:27:34;;;;;;;7.22;2.20;;;16.60;99.90;;;;;;5095320;28;20243;-47
2022/06/01 08:30:00;;;;;;;5.28;1.83;;;16.80;99.90;;;;;;5095573;28;20193;-49
2022/06/01 08:32:25;;;;;;;3.78;1.58;;;16.80;99.90;;;;;;5095721;28;20191;-50
2022/06/01 08:34:51;;;;;;;2.72;2.03;;;16.80;99.90;;;;;;5095355;28;20203;-48
2022/06/01 08:37:17;;;;;;;5.43;2.22;;;16.90;99.90;;;;;;5095455;28;20165;-47
2022/06/01 08:39:43;;;;;;;4.45;2.05;;;17.20;99.90;;;;;;5095234;28;20684;-47
2022/06/01 08:42:14;;;;;;;3.20;1.83;;;17.20;99.90;;;;;;5095335;28;20577;-48
2022/06/01 08:44:43;;;;;;;5.28;1.70;;;16.90;99.90;;;;;;5095126;28;20157;-48
2022/06/01 08:47:12;;;;;;;6.40;2.40;;;17.00;99.90;;;;;;5095057;28;20219;-48
2022/06/01 08:49:39;;;;;;;3.03;1.70;;;17.30;99.90;;;;;;5094972;28;20217;-47
2022/06/01 08:52:06;;;;;;;2.97;2.00;;;17.40;99.90;;;;;;5094697;28;20303;-47
2022/06/01 08:54:32;;;;;;;4.65;2.20;;;17.70;99.90;;;;;;5095095;28;20164;-47
2022/06/01 08:57:35;;;;;;;4.97;2.20;;;17.70;99.90;;;;;;5095136;28;20166;-48
2022/06/01 09:00:11;;;;;;;4.15;2.50;;;17.50;99.90;;;;;;5050060;28;20189;-49
2022/06/01 09:02:56;;;;;;;8.60;2.10;;;17.30;99.90;;;;;;5094781;28;20165;-48
2022/06/01 09:05:22;;;;;;;4.75;2.30;;;17.40;99.90;;;;;;5094724;28;20275;-48
2022/06/01 09:07:53;;;;;;;9.02;2.00;;;17.60;99.90;;;;;;5094554;28;20299;-48
2022/06/01 09:11:00;;;;;;;3.30;2.00;;;17.60;99.90;;;;;;5094679;28;20165;-49
2022/06/01 09:13:32;;;;;;;4.32;2.00;;;17.80;99.90;;;;;;5094774;28;20161;-48
2022/06/01 09:16:18;;;;;;;2.42;1.50;;;17.90;99.90;;;;;;5094850;28;20157;-49
2022/06/01 09:18:54;;;;;;;3.28;2.10;;;17.70;99.90;;;;;;5094498;28;20169;-48
2022/06/01 09:24:14;;;;;;;2.70;1.83;;;18.20;99.90;;;;;;5094601;28;20227;-48
2022/06/01 09:27:11;;;;;;;5.43;2.03;;;18.20;99.90;;;;;;5076081;28;20200;-47
2022/06/01 09:29:47;;;;;;;5.97;1.95;;;18.20;99.90;;;;;;5078122;28;20638;-46
2022/06/01 09:32:36;;;;;;;5.38;2.03;;;18.20;99.90;;;;;;5094209;28;20176;-47
2022/06/01 09:35:05;;;;;;;5.18;2.30;;;18.50;99.90;;;;;;5094171;28;20181;-47
2022/06/01 09:37:46;;;;;;;3.25;2.35;;;18.50;99.90;;;;;;5093889;28;20200;-47
2022/06/01 09:40:26;;;;;;;3.60;2.00;;;18.60;99.90;;;;;;5094275;28;20256;-48
2022/06/01 09:42:54;;;;;;;4.97;2.78;;;18.80;99.90;;;;;;5094137;28;20507;-48
2022/06/01 09:45:29;;;;;;;6.35;2.45;;;18.70;99.90;;;;;;5094160;28;20165;-47
2022/06/01 09:48:28;;;;;;;4.15;2.47;;;18.60;99.90;;;;;;5094138;28;20588;-47
2022/06/01 09:51:02;;;;;;;3.55;2.33;;;18.80;99.90;;;;;;5094406;28;20176;-47
2022/06/01 09:53:38;;;;;;;5.50;2.30;;;18.70;99.90;;;;;;5093876;28;20590;-47
2022/06/01 09:56:04;;;;;;;4.03;2.10;;;18.40;99.90;;;;;;5093776;28;20630;-47
2022/06/01 10:07:17;;;;;;;2.47;1.63;;;18.60;99.90;;;;;;5093621;28;20695;-48
2022/06/01 10:09:50;;;;;;;2.13;1.85;;;18.60;99.90;;;;;;5093422;28;20191;-48
2022/06/01 10:12:41;;;;;;;2.65;2.08;;;18.50;99.90;;;;;;5093076;28;20206;-48
2022/06/01 10:15:19;;;;;;;4.18;1.80;;;18.60;99.90;;;;;;5093166;28;20169;-47
2022/06/01 10:17:50;;;;;;;4.97;2.00;;;18.70;99.90;;;;;;5093241;28;20169;-46
2022/06/01 10:20:34;;;;;;;2.75;2.08;;;19.00;99.90;;;;;;5093200;28;20216;-47
2022/06/01 10:23:13;;;;;;;3.95;1.80;;;19.20;99.90;;;;;;5093253;28;20166;-48
2022/06/01 10:26:06;;;;;;;2.97;1.50;;;19.80;99.90;;;;;;5093382;28;20181;-47
2022/06/01 10:28:37;;;;;;;1.92;1.70;;;20.00;99.90;;;;;;5093142;28;20227;-48
2022/06/01 10:31:07;;;;;;;2.10;1.90;;;20.20;99.90;;;;;;5093249;28;20169;-47
2022/06/01 10:33:45;;;;;;;3.97;2.00;;;19.80;99.90;;;;;;5092874;28;20161;-47
2022/06/01 10:36:16;;;;;;;3.08;1.88;;;19.60;99.90;;;;;;5092935;28;20165;-47
2022/06/01 10:39:03;;;;;;;4.40;1.67;;;19.30;99.90;;;;;;5092403;28;20169;-46
2022/06/01 10:41:35;;;;;;;4.68;2.30;;;19.30;99.90;;;;;;5092488;28;20169;-47
2022/06/01 10:44:11;;;;;;;3.22;2.15;;;18.90;99.90;;;;;;5074586;28;20166;-46
2022/06/01 10:47:01;;;;;;;3.50;1.90;;;18.70;99.90;;;;;;5092338;28;20200;-47
2022/06/01 10:49:48;;;;;;;4.82;3.33;;;19.00;99.90;;;;;;5093327;28;20173;-49
2022/06/01 10:52:25;;;;;;;4.85;2.00;;;19.40;99.90;;;;;;5092384;28;20220;-48
2022/06/01 10:55:15;;;;;;;6.93;1.92;;;19.70;99.90;;;;;;5092499;28;20672;-47
2022/06/01 10:57:44;;;;;;;3.83;2.00;;;20.10;99.90;;;;;;5092457;28;20616;-47
2022/06/01 11:00:19;;;;;;;5.28;2.08;;;19.90;99.90;;;;;;5092384;28;20535;-48
2022/06/01 11:02:57;;;;;;;5.07;1.98;;;20.30;99.90;;;;;;5092872;28;20612;-46
2022/06/01 11:05:27;;;;;;;2.90;1.70;;;20.10;99.90;;;;;;5092640;28;20173;-47
2022/06/01 11:08:11;;;;;;;2.78;1.63;;;20.00;99.90;;;;;;5092271;28;20197;-47
2022/06/01 11:10:54;;;;;;;2.92;1.90;;;19.80;99.90;;;;;;5092594;28;20204;-46
2022/06/01 11:13:36;;;;;;;5.15;1.90;;;19.80;99.90;;;;;;5092271;28;20153;-48
2022/06/01 11:16:38;;;;;;;7.68;1.90;;;19.80;99.90;;;;;;5092229;28;20626;-48
2022/06/01 11:19:19;;;;;;;4.28;2.20;;;19.80;99.90;;;;;;5091914;28;20172;-48
2022/06/01 11:22:04;;;;;;;5.07;1.75;;;20.30;99.90;;;;;;5092169;28;20164;-47
2022/06/01 11:24:59;;;;;;;4.50;1.67;;;20.30;99.90;;;;;;5092037;28;20173;-46
2022/06/01 11:27:44;;;;;;;3.50;1.85;;;20.50;99.90;;;;;;5092241;28;20205;-48
2022/06/01 11:30:21;;;;;;;4.15;1.95;;;20.70;99.90;;;;;;5091621;28;20649;-48
2022/06/01 11:33:15;;;;;;;2.78;1.80;;;20.50;99.90;;;;;;5092154;28;20172;-46
2022/06/01 11:35:57;;;;;;;3.33;1.90;;;20.20;99.90;;;;;;5092309;28;20170;-47
2022/06/01 11:38:36;;;;;;;3.67;2.03;;;20.10;99.90;;;;;;5092218;28;20271;-47
2022/06/01 11:41:14;;;;;;;3.10;1.77;;;20.70;99.90;;;;;;5091991;28;20166;-47
2022/06/01 11:43:59;;;;;;;3.72;1.80;;;20.50;99.90;;;;;;5092124;28;20573;-47
2022/06/01 11:46:39;;;;;;;4.45;1.92;;;19.90;99.90;;;;;;5074145;28;20253;-48
2022/06/01 11:49:12;;;;;;;3.97;1.70;;;19.60;99.90;;;;;;5091497;28;20654;-47
2022/06/01 11:51:37;;;;;;;2.63;1.67;;;19.60;99.90;;;;;;5091740;28;20209;-46
2022/06/01 11:54:35;;;;;;;4.60;1.90;;;19.60;99.90;;;;;;5092820;28;20180;-47
2022/06/01 11:57:16;;;;;;;4.40;1.75;;;19.80;99.90;;;;;;5079595;28;20181;-47
2022/06/01 11:59:51;;;;;;;3.53;1.73;;;20.00;99.90;;;;;;5078067;28;20165;-47
2022/06/01 12:02:40;;;;;;;3.08;1.90;;;20.30;99.90;;;;;;5095955;28;20201;-47
2022/06/01 12:05:19;;;;;;;4.18;2.28;;;19.90;99.90;;;;;;5096029;28;20165;-48
2022/06/01 12:07:54;;;;;;;3.03;1.50;;;20.00;99.90;;;;;;5095602;28;20253;-47
2022/06/01 12:10:28;;;;;;;3.63;2.05;;;20.30;99.90;;;;;;5095763;28;20165;-47
2022/06/01 12:13:23;;;;;;;3.95;1.52;;;20.20;99.90;;;;;;5096070;28;20230;-46
2022/06/01 12:16:04;;;;;;;4.30;2.03;;;20.40;99.90;;;;;;5095636;28;20265;-46
2022/06/01 12:18:31;;;;;;;4.65;1.80;;;20.70;99.90;;;;;;5095789;28;20172;-46
2022/06/01 12:21:52;;;;;;;4.40;2.10;;;20.50;99.90;;;;;;5096123;28;20169;-46
2022/06/01 12:30:02;;;;;;;4.25;1.73;;;20.70;99.90;;;;;;5095522;28;20235;-47
2022/06/01 12:32:29;;;;;;;3.63;2.10;;;20.70;99.90;;;;;;5095991;28;20201;-47
2022/06/01 12:35:10;;;;;;;4.88;1.98;;;21.00;99.90;;;;;;5095497;28;20177;-47
2022/06/01 12:37:45;;;;;;;3.60;1.70;;;20.90;98.80;;;;;;5095528;28;20264;-48
2022/06/01 12:40:15;;;;;;;2.28;1.77;;;21.10;99.90;;;;;;5095213;28;20617;-46
2022/06/01 12:43:00;;;;;;;6.00;1.67;;;21.40;99.90;;;;;;5095054;28;20211;-47
2022/06/01 12:45:37;;;;;;;3.55;1.52;;;21.40;96.30;;;;;;5095268;28;20222;-46
2022/06/01 12:48:09;;;;;;;1.30;1.20;;;20.70;97.60;;;;;;5095072;28;20242;-48
2022/06/01 12:50:48;;;;;;;2.80;1.50;;;20.90;97.90;;;;;;5077245;28;20168;-48
2022/06/01 12:53:19;;;;;;;2.63;1.75;;;21.10;99.00;;;;;;5094870;28;20224;-46
2022/06/01 12:55:46;;;;;;;4.30;1.40;;;21.30;96.40;;;;;;5094974;28;20626;-46
2022/06/01 12:58:21;;;;;;;1.50;1.27;;;20.90;96.70;;;;;;5094882;28;20165;-47
2022/06/01 13:00:56;;;;;;;3.58;1.30;;;21.00;94.60;;;;;;5094855;28;20200;-47
2022/06/01 13:03:30;;;;;;;1.65;1.40;;;21.20;94.20;;;;;;5094712;28;20165;-47
2022/06/01 13:05:58;;;;;;;2.90;1.30;;;21.60;95.30;;;;;;5076190;28;20169;-48
2022/06/01 13:08:27;;;;;;;4.55;2.40;;;20.80;93.70;;;;;;5095268;28;20198;-49
2022/06/01 13:10:52;;;;;;;4.93;2.60;;;20.40;99.90;;;;;;5094551;28;20161;-50
2022/06/01 13:13:29;;;;;;;3.97;2.33;;;20.70;99.90;;;;;;5094549;28;20180;-49
2022/06/01 13:15:59;;;;;;;3.15;2.40;;;20.80;99.90;;;;;;5094981;28;20572;-49
2022/06/01 13:18:35;;;;;;;2.20;2.03;;;20.70;99.90;;;;;;5095027;28;20576;-49
2022/06/01 13:21:05;;;;;;;4.07;2.10;;;20.70;99.90;;;;;;5094110;28;20192;-50
2022/06/01 13:23:40;;;;;;;5.25;2.15;;;20.40;99.90;;;;;;5094141;28;20196;-49
2022/06/01 13:26:12;;;;;;;4.13;2.10;;;20.50;99.90;;;;;;5094009;28;20169;-49
2022/06/01 13:28:37;;;;;;;2.65;2.05;;;21.00;99.90;;;;;;5094003;28;20630;-48
2022/06/01 13:31:03;;;;;;;3.03;1.50;;;21.00;99.90;;;;;;5093836;28;20169;-49
2022/06/01 13:33:45;;;;;;;2.20;1.40;;;21.20;99.90;;;;;;5094239;28;20166;-47
2022/06/01 13:36:24;;;;;;;3.28;1.38;;;21.00;98.10;;;;;;5094116;28;20257;-49
2022/06/01 13:38:50;;;;;;;6.18;1.63;;;21.10;99.90;;;;;;5094074;28;20169;-50
2022/06/01 13:41:31;;;;;;;4.28;1.50;;;20.90;99.90;;;;;;5092727;28;20161;-49
2022/06/01 13:43:57;;;;;;;3.47;1.65;;;20.30;99.40;;;;;;5093735;28;20157;-50
2022/06/01 13:46:40;;;;;;;5.30;1.83;;;19.70;99.90;;;;;;5093627;28;20189;-49
2022/06/01 13:49:11;;;;;;;3.15;2.05;;;19.50;99.90;;;;;;5093343;28;20638;-49